KMTH/MTH METAR and TAF weather

Enter ICAO airport designator
Station Type Date Time Source
KMTH METAR 2020/09/21 05:53 UTC NOAA

KMTH 210553Z AUTO 02003KT 10SM CLR 28/25 A2990 RMK AO2 SLP123 T02830250 10289 20283 58011 TSNO


Station Type Date Time Source
KMTH Decoded METAR 2020/09/21 05:53 UTC NOAA

MARATHON AIRPORT, FL, United States (KMTH) 24-44N 81-03W 2M
Sep 21, 2020 - 01:53 AM EDT / 2020.09.21 0553 UTC
Wind: from the NNE (020 degrees) at 3 MPH (3 KT):0
Visibility: 10 mile(s):0
Sky conditions: clear
Temperature: 82.9 F (28.3 C)
Dew Point: 77.0 F (25.0 C)
Relative Humidity: 82%
Pressure (altimeter): 29.9 in. Hg (1012 hPa)
Pressure tendency: 0.03 inches (1.1 hPa) lower than three hours ago
ob: KMTH 210553Z AUTO 02003KT 10SM CLR 28/25 A2990 RMK AO2 SLP123 T02830250 10289 20283 58011 TSNO
cycle: 6

Station Type Date Time Source
KMTH TAF 2020/09/21 06:30 UTC NOAA

TAF KMTH 210528Z 2106/2206 01004KT P6SM SCT025 SCT150
FM210900 05007KT P6SM VCSH SCT025 SCT045 BKN120
FM212100 07012G22KT P6SM -SHRA VCTS SCT025CB BKN045
TEMPO 2122/2202 07018G28KT 2SM +SHRA BR BKN025
FM220200 06016G27KT P6SM -SHRA VCTS SCT025CB BKN045

Example: see airport list